createdAt,value
2023-01-17T00:01:09.278Z,3.27
2023-01-17T00:06:50.033Z,7.60
2023-01-17T00:12:12.524Z,2.53
2023-01-17T00:17:34.627Z,4.83
2023-01-17T00:23:15.381Z,3.07
2023-01-17T00:28:39.635Z,2.90
2023-01-17T00:34:02.956Z,3.70
2023-01-17T00:39:24.968Z,2.47
2023-01-17T00:45:08.351Z,1.83
2023-01-17T00:50:49.986Z,3.07
2023-01-17T00:56:30.748Z,4.43
2023-01-17T01:02:11.267Z,4.07
2023-01-17T01:07:52.243Z,2.23
2023-01-17T01:13:33.450Z,2.83
2023-01-17T01:19:14.298Z,2.93
2023-01-17T01:24:55.413Z,3.60
2023-01-17T01:30:39.871Z,2.87
2023-01-17T01:36:02.189Z,5.83
2023-01-17T01:41:24.676Z,3.33
2023-01-17T01:46:47.015Z,2.30
2023-01-17T01:52:11.292Z,2.33
2023-01-17T01:57:40.805Z,2.67
2023-01-17T02:03:11.053Z,2.20
2023-01-17T02:08:33.926Z,2.60
2023-01-17T02:13:56.394Z,4.67
2023-01-17T02:19:56.320Z,2.40
2023-01-17T02:25:56.065Z,2.83
2023-01-17T02:31:32.126Z,3.17
2023-01-17T02:37:04.353Z,2.30
2023-01-17T02:42:36.219Z,3.70
2023-01-17T02:47:58.394Z,3.03
2023-01-17T02:53:42.365Z,2.13
2023-01-17T02:59:13.615Z,2.43
2023-01-17T03:04:38.550Z,3.03
2023-01-17T03:10:03.641Z,5.77
2023-01-17T03:15:25.920Z,4.83
2023-01-17T03:20:48.083Z,2.33
2023-01-17T03:26:10.201Z,2.87
2023-01-17T03:31:32.753Z,2.13
2023-01-17T03:36:55.011Z,2.93
2023-01-17T03:42:17.474Z,1.83
2023-01-17T03:47:39.798Z,2.27
2023-01-17T03:53:02.399Z,2.77
2023-01-17T03:58:24.702Z,2.60
2023-01-17T04:03:47.099Z,3.73
2023-01-17T04:09:09.203Z,2.23
2023-01-17T04:14:31.738Z,2.00
2023-01-17T04:19:54.104Z,2.17
2023-01-17T04:25:16.417Z,2.40
2023-01-17T04:30:39.513Z,1.83
2023-01-17T04:36:01.911Z,2.80
2023-01-17T04:41:24.304Z,1.83
2023-01-17T04:46:46.494Z,2.40
2023-01-17T04:52:08.881Z,1.70
2023-01-17T04:57:31.040Z,1.70
2023-01-17T05:02:53.613Z,1.70
2023-01-17T05:08:15.946Z,1.30
2023-01-17T05:13:38.481Z,0.90
2023-01-17T05:19:00.736Z,1.43
2023-01-17T05:24:23.401Z,0.93
2023-01-17T05:29:45.846Z,1.00
2023-01-17T05:35:08.773Z,0.93
2023-01-17T05:40:33.066Z,0.90
2023-01-17T05:45:55.586Z,0.90
2023-01-17T05:51:17.661Z,1.00
2023-01-17T05:56:40.290Z,1.33
2023-01-17T06:02:02.870Z,1.23
2023-01-17T06:07:25.067Z,2.10
2023-01-17T06:12:48.317Z,1.30
2023-01-17T06:18:13.030Z,0.97
2023-01-17T06:23:35.395Z,1.10
2023-01-17T06:28:57.677Z,0.90
2023-01-17T06:34:20.250Z,1.63
2023-01-17T06:39:44.141Z,1.90
2023-01-17T06:45:06.886Z,1.87
2023-01-17T06:50:29.955Z,1.50
2023-01-17T06:55:55.180Z,1.47
2023-01-17T07:01:18.940Z,1.53
2023-01-17T07:06:41.175Z,2.30
2023-01-17T07:12:03.858Z,2.10
2023-01-17T07:17:26.143Z,2.00
2023-01-17T07:22:48.698Z,1.67
2023-01-17T07:28:10.998Z,1.67
2023-01-17T07:33:33.738Z,1.50
2023-01-17T07:38:56.454Z,1.80
2023-01-17T07:44:18.583Z,1.60
2023-01-17T07:49:40.885Z,1.90
2023-01-17T07:55:06.641Z,1.73
2023-01-17T08:00:29.335Z,1.67
2023-01-17T08:05:57.666Z,1.93
2023-01-17T08:11:20.219Z,2.13
2023-01-17T08:16:42.616Z,1.57
2023-01-17T08:22:05.457Z,1.40
2023-01-17T08:27:29.216Z,2.30
2023-01-17T08:32:51.527Z,2.67
2023-01-17T08:38:13.699Z,1.47
2023-01-17T08:43:36.287Z,1.23
2023-01-17T08:49:00.129Z,1.20
2023-01-17T08:54:23.223Z,1.50
2023-01-17T08:59:45.661Z,1.47
2023-01-17T09:05:08.408Z,1.00
2023-01-17T09:10:30.881Z,1.30
2023-01-17T09:15:57.232Z,0.87
2023-01-17T09:21:21.907Z,1.00
2023-01-17T09:26:44.383Z,1.00
2023-01-17T09:32:06.848Z,4.33
2023-01-17T09:37:29.104Z,0.90
2023-01-17T09:42:55.423Z,1.10
2023-01-17T09:48:38.834Z,0.90
2023-01-17T09:54:02.545Z,1.17
2023-01-17T09:59:39.683Z,0.80
2023-01-17T10:05:50.237Z,0.80
2023-01-17T10:11:47.803Z,1.00
2023-01-17T10:17:42.979Z,1.33
2023-01-17T10:23:50.144Z,1.27
2023-01-17T10:29:20.185Z,1.50
2023-01-17T10:34:50.522Z,1.30
2023-01-17T10:40:31.666Z,0.80
2023-01-17T10:45:56.652Z,1.10
2023-01-17T10:51:26.725Z,1.63
2023-01-17T10:56:50.156Z,0.83
2023-01-17T11:02:26.101Z,1.00
2023-01-17T11:08:05.539Z,3.53
2023-01-17T11:13:36.290Z,1.07
2023-01-17T11:19:14.863Z,1.10
2023-01-17T11:24:41.982Z,0.90
2023-01-17T11:30:16.048Z,1.70
2023-01-17T11:35:45.147Z,0.90
2023-01-17T11:41:21.948Z,0.90
2023-01-17T11:46:44.266Z,1.13
2023-01-17T11:52:19.152Z,0.70
2023-01-17T11:57:41.287Z,1.97
2023-01-17T12:03:31.726Z,1.53
2023-01-17T12:09:08.835Z,1.00
2023-01-17T12:14:46.511Z,1.00
2023-01-17T12:20:24.827Z,0.80
2023-01-17T12:25:50.124Z,1.10
2023-01-17T12:31:28.545Z,0.90
2023-01-17T12:37:20.465Z,1.00
2023-01-17T12:42:51.175Z,1.40
2023-01-17T12:48:17.569Z,1.17
2023-01-17T12:54:00.351Z,1.10
2023-01-17T12:59:38.867Z,1.20
2023-01-17T13:05:06.875Z,1.40
2023-01-17T13:10:48.074Z,1.30
2023-01-17T13:16:43.340Z,3.47
2023-01-17T13:22:09.807Z,2.73
2023-01-17T13:27:40.424Z,2.20
2023-01-17T13:33:08.642Z,1.33
2023-01-17T13:38:55.053Z,1.20
2023-01-17T13:44:24.462Z,1.23
2023-01-17T13:49:56.265Z,1.80
2023-01-17T13:55:45.956Z,1.27
2023-01-17T14:01:11.442Z,1.47
2023-01-17T14:06:33.942Z,1.53
2023-01-17T14:12:03.390Z,2.40
2023-01-17T14:17:28.208Z,3.27
2023-01-17T14:22:53.669Z,1.03
2023-01-17T14:28:26.261Z,1.27
2023-01-17T14:33:48.529Z,1.63
2023-01-17T14:39:23.275Z,1.57
2023-01-17T14:44:48.175Z,3.90
2023-01-17T14:50:18.124Z,4.43
2023-01-17T14:55:59.013Z,2.73
2023-01-17T15:01:21.962Z,1.30
2023-01-17T15:06:45.790Z,1.30
2023-01-17T15:12:13.908Z,2.23
2023-01-17T15:17:36.587Z,4.43
2023-01-17T15:22:59.552Z,1.33
2023-01-17T15:28:22.496Z,1.10
2023-01-17T15:33:48.180Z,3.23
2023-01-17T15:39:34.789Z,4.20
2023-01-17T15:45:03.934Z,3.17
2023-01-17T15:50:30.633Z,3.17
2023-01-17T15:55:53.421Z,1.70
2023-01-17T16:01:18.019Z,2.30
2023-01-17T16:06:45.780Z,2.97
2023-01-17T16:12:08.297Z,1.60
2023-01-17T16:17:31.848Z,2.40
2023-01-17T16:22:54.219Z,3.97
2023-01-17T16:28:16.524Z,5.57
2023-01-17T16:33:39.518Z,5.10
2023-01-17T16:39:02.152Z,4.53
2023-01-17T16:44:24.638Z,2.37
2023-01-17T16:49:46.979Z,4.90
2023-01-17T16:55:12.661Z,8.77
2023-01-17T17:00:35.016Z,5.17
2023-01-17T17:05:59.999Z,5.27
2023-01-17T17:11:23.942Z,4.77
2023-01-17T17:16:47.622Z,6.90
2023-01-17T17:22:10.008Z,4.27
2023-01-17T17:27:32.763Z,6.93
2023-01-17T17:32:55.335Z,13.07
2023-01-17T17:38:17.641Z,8.33
2023-01-17T17:43:43.078Z,4.67
2023-01-17T17:49:06.867Z,7.47
2023-01-17T17:54:29.356Z,13.30
2023-01-17T17:59:51.652Z,15.53
2023-01-17T18:05:14.139Z,14.63
2023-01-17T18:10:37.030Z,18.40
2023-01-17T18:16:22.920Z,22.70
2023-01-17T18:21:45.325Z,21.17
2023-01-17T18:27:10.472Z,26.93
2023-01-17T18:32:33.340Z,20.90
2023-01-17T18:37:57.702Z,21.23
2023-01-17T18:43:20.338Z,14.27
2023-01-17T18:48:42.853Z,11.13
2023-01-17T18:54:07.235Z,8.53
2023-01-17T18:59:29.929Z,13.23
2023-01-17T19:04:55.652Z,20.43
2023-01-17T19:10:22.176Z,24.83
2023-01-17T19:15:44.658Z,16.17
2023-01-17T19:21:10.612Z,21.00
2023-01-17T19:26:33.386Z,15.03
2023-01-17T19:31:55.706Z,8.63
2023-01-17T19:37:18.405Z,13.23
2023-01-17T19:42:41.298Z,12.80
2023-01-17T19:48:04.475Z,9.40
2023-01-17T19:53:26.791Z,5.63
2023-01-17T19:58:49.155Z,8.30
2023-01-17T20:04:12.855Z,9.27
2023-01-17T20:09:35.245Z,6.93
2023-01-17T20:14:57.757Z,4.30
2023-01-17T20:20:20.126Z,5.87
2023-01-17T20:25:44.011Z,7.23
2023-01-17T20:31:14.436Z,5.60
2023-01-17T20:36:37.528Z,8.23
2023-01-17T20:41:59.719Z,5.87
2023-01-17T20:47:21.876Z,5.33
2023-01-17T20:52:44.812Z,6.77
2023-01-17T20:58:07.467Z,8.40
2023-01-17T21:03:30.035Z,12.63
2023-01-17T21:08:52.891Z,23.10
2023-01-17T21:14:15.432Z,14.03
2023-01-17T21:19:37.759Z,11.67
2023-01-17T21:25:00.041Z,8.63
2023-01-17T21:30:22.210Z,9.03
2023-01-17T21:35:44.906Z,5.50
2023-01-17T21:41:07.432Z,5.90
2023-01-17T21:46:30.336Z,6.70
2023-01-17T21:51:52.598Z,8.17
2023-01-17T21:57:36.920Z,4.63
2023-01-17T22:02:59.178Z,6.07
2023-01-17T22:08:21.563Z,4.73
2023-01-17T22:13:45.186Z,6.00
2023-01-17T22:19:08.235Z,8.87
2023-01-17T22:24:30.384Z,11.57
2023-01-17T22:29:54.790Z,10.03
2023-01-17T22:35:17.496Z,11.03
2023-01-17T22:40:39.888Z,7.67
2023-01-17T22:46:02.874Z,12.37
2023-01-17T22:51:27.593Z,5.43
2023-01-17T22:56:50.274Z,9.10
2023-01-17T23:02:12.977Z,9.73
2023-01-17T23:07:43.840Z,6.73
2023-01-17T23:13:10.365Z,8.97
2023-01-17T23:18:51.002Z,6.30
2023-01-17T23:24:13.203Z,8.13
2023-01-17T23:29:35.218Z,4.87
2023-01-17T23:34:57.450Z,9.20
2023-01-17T23:40:19.853Z,11.87
2023-01-17T23:45:42.100Z,7.73
2023-01-17T23:51:10.742Z,12.30
2023-01-17T23:56:33.002Z,17.53
